Time;durP1;ratioP1;P1;durP2;ratioP2;P2;SDS_P1;SDS_P2;PMS_P1;PMS_P2;Temp;Humidity;BMP_temperature;BMP_pressure;BME280_temperature;BME280_humidity;BME280_pressure;Samples;Min_cycle;Max_cycle;Signal;HPM_P1;HPM_P2
2022/10/07 00:02:16;;;;;;;31.70;8.65;;;9.10;99.90;;;;;;5036137;28;20454;-69
2022/10/07 00:04:45;;;;;;;31.13;8.73;;;9.10;99.90;;;;;;5038185;28;20063;-69
2022/10/07 00:07:11;;;;;;;24.92;9.10;;;9.00;99.90;;;;;;5041991;28;20120;-69
2022/10/07 00:09:37;;;;;;;27.17;8.65;;;9.00;99.90;;;;;;5046163;28;20395;-70
2022/10/07 00:12:02;;;;;;;34.70;9.23;;;8.90;99.90;;;;;;5044975;28;20037;-69
2022/10/07 00:14:28;;;;;;;29.55;9.20;;;9.00;99.90;;;;;;5070051;28;20032;-69
2022/10/07 00:16:54;;;;;;;28.00;8.18;;;8.90;99.90;;;;;;5041452;28;20441;-70
2022/10/07 00:19:19;;;;;;;26.30;8.68;;;8.90;99.90;;;;;;5042096;28;20045;-70
2022/10/07 00:21:45;;;;;;;30.77;8.57;;;8.90;99.90;;;;;;5072028;28;20123;-69
2022/10/07 00:24:11;;;;;;;30.75;8.77;;;8.80;99.90;;;;;;5044081;28;20045;-69
2022/10/07 00:26:37;;;;;;;34.72;9.38;;;8.80;99.90;;;;;;5038762;28;20048;-69
2022/10/07 00:29:04;;;;;;;25.17;8.77;;;8.80;99.90;;;;;;5068541;28;20306;-69
2022/10/07 00:31:33;;;;;;;26.98;9.48;;;8.70;99.90;;;;;;5042748;28;20040;-69
2022/10/07 00:33:58;;;;;;;32.75;9.15;;;8.70;99.90;;;;;;5040727;28;20099;-69
2022/10/07 00:36:36;;;;;;;31.48;9.20;;;8.70;99.90;;;;;;5075441;28;20060;-69
2022/10/07 00:39:05;;;;;;;25.95;8.18;;;8.80;99.90;;;;;;5037597;28;20069;-69
2022/10/07 00:41:37;;;;;;;27.02;8.57;;;8.70;99.90;;;;;;5041838;28;20701;-69
2022/10/07 00:44:31;;;;;;;32.50;9.15;;;8.70;99.90;;;;;;5072416;28;20057;-69
2022/10/07 00:47:18;;;;;;;28.63;8.90;;;8.80;99.90;;;;;;5071982;28;20057;-70
2022/10/07 00:49:49;;;;;;;34.05;9.18;;;8.70;99.90;;;;;;5044558;28;20140;-69
2022/10/07 00:52:15;;;;;;;29.83;8.50;;;8.80;99.90;;;;;;5042733;28;20033;-69
2022/10/07 00:54:42;;;;;;;26.02;8.38;;;8.70;99.90;;;;;;5042131;28;20730;-69
2022/10/07 00:57:09;;;;;;;30.00;9.18;;;8.70;99.90;;;;;;5039670;28;20434;-69
2022/10/07 00:59:37;;;;;;;27.33;8.57;;;8.70;99.90;;;;;;5042327;28;20121;-69
2022/10/07 01:02:03;;;;;;;28.38;8.93;;;8.70;99.90;;;;;;5043211;28;20135;-69
2022/10/07 01:04:28;;;;;;;26.23;9.25;;;8.70;99.90;;;;;;5050138;28;20126;-69
2022/10/07 01:06:55;;;;;;;35.13;9.15;;;8.70;99.90;;;;;;5050660;28;20400;-68
2022/10/07 01:09:21;;;;;;;32.03;9.02;;;8.70;99.90;;;;;;5050019;28;20049;-69
2022/10/07 01:12:14;;;;;;;34.22;8.65;;;8.70;99.90;;;;;;5045121;28;20037;-69
2022/10/07 01:14:59;;;;;;;;;;;8.70;99.90;;;;;;5049820;28;20033;-69
2022/10/07 01:17:56;;;;;;;23.38;8.27;;;8.70;99.90;;;;;;5052955;28;19921;-69
2022/10/07 01:20:29;;;;;;;35.42;9.00;;;8.70;99.90;;;;;;5047220;28;20045;-69
2022/10/07 01:23:16;;;;;;;31.60;9.15;;;8.70;99.90;;;;;;5047908;28;20071;-68
2022/10/07 01:26:00;;;;;;;33.95;8.60;;;8.70;99.90;;;;;;5047208;28;20036;-69
2022/10/07 01:28:57;;;;;;;31.58;8.35;;;8.80;99.90;;;;;;5049933;28;20463;-68
2022/10/07 01:31:32;;;;;;;41.08;8.15;;;8.80;99.90;;;;;;5077852;28;20041;-69
2022/10/07 01:33:58;;;;;;;34.70;7.95;;;8.90;99.90;;;;;;5046444;28;20040;-70
2022/10/07 01:36:25;;;;;;;36.33;7.90;;;9.00;99.90;;;;;;5048418;28;20460;-69
2022/10/07 01:39:01;;;;;;;31.90;7.60;;;9.10;99.90;;;;;;5048844;28;20040;-69
2022/10/07 01:41:27;;;;;;;37.25;8.30;;;9.10;99.90;;;;;;5045672;28;20061;-69
2022/10/07 01:43:54;;;;;;;35.05;8.10;;;9.20;99.90;;;;;;5042449;28;20366;-68
2022/10/07 01:46:25;;;;;;;36.28;7.82;;;9.20;99.90;;;;;;5048327;28;20036;-69
2022/10/07 01:48:51;;;;;;;40.30;8.85;;;9.20;99.90;;;;;;5047893;28;20044;-67
2022/10/07 01:51:20;;;;;;;35.05;7.47;;;9.30;99.90;;;;;;5047139;28;20049;-67
2022/10/07 01:54:03;;;;;;;43.25;8.73;;;9.30;99.90;;;;;;5046504;28;20048;-69
2022/10/07 01:56:29;;;;;;;39.05;8.90;;;9.40;99.90;;;;;;5046620;28;20128;-69
2022/10/07 01:59:20;;;;;;;30.52;7.28;;;9.40;99.90;;;;;;5029954;28;20155;-69
2022/10/07 02:01:59;;;;;;;47.10;9.20;;;9.50;99.90;;;;;;5078176;28;20071;-69
2022/10/07 02:04:30;;;;;;;32.35;8.13;;;9.50;99.90;;;;;;5045320;28;20033;-70
2022/10/07 02:07:33;;;;;;;42.45;8.52;;;9.50;99.90;;;;;;5080030;28;20049;-68
2022/10/07 02:10:11;;;;;;;;;;;9.40;99.90;;;;;;5046889;28;20049;-69
2022/10/07 02:12:45;;;;;;;39.13;9.05;;;9.50;99.90;;;;;;5042546;28;20431;-69
2022/10/07 02:15:34;;;;;;;35.08;8.88;;;9.40;99.90;;;;;;5041618;28;20037;-69
2022/10/07 02:18:05;;;;;;;40.78;9.18;;;9.40;99.90;;;;;;5039338;28;20088;-70
2022/10/07 02:20:34;;;;;;;39.92;8.15;;;9.40;99.90;;;;;;5042803;28;20462;-69
2022/10/07 02:23:04;;;;;;;36.35;8.77;;;9.40;99.90;;;;;;5038482;28;20045;-69
2022/10/07 02:25:36;;;;;;;36.45;8.20;;;9.40;99.90;;;;;;5044636;28;20053;-69
2022/10/07 02:28:05;;;;;;;42.42;8.60;;;9.40;99.90;;;;;;5042892;28;20045;-69
2022/10/07 02:30:33;;;;;;;49.40;11.20;;;9.40;99.90;;;;;;5046829;28;20040;-69
2022/10/07 02:33:02;;;;;;;39.67;9.02;;;9.30;99.90;;;;;;5046901;28;20101;-69
2022/10/07 02:35:48;;;;;;;38.78;9.00;;;9.40;99.90;;;;;;5044850;28;20040;-69
2022/10/07 02:38:15;;;;;;;41.40;8.93;;;9.30;99.90;;;;;;5044217;28;20080;-69
2022/10/07 02:40:50;;;;;;;35.55;8.70;;;9.30;99.90;;;;;;5044453;28;20083;-69
2022/10/07 02:43:29;;;;;;;30.10;9.48;;;9.20;99.90;;;;;;5066727;28;20083;-68
2022/10/07 02:46:03;;;;;;;43.75;9.05;;;9.10;99.90;;;;;;5044828;28;20049;-69
2022/10/07 02:48:38;;;;;;;30.88;9.30;;;9.10;99.90;;;;;;5070304;28;20128;-69
2022/10/07 02:51:10;;;;;;;34.92;8.75;;;9.00;99.90;;;;;;5043114;28;20075;-69
2022/10/07 02:53:38;;;;;;;37.83;10.00;;;8.90;99.90;;;;;;5043678;28;20048;-69
2022/10/07 02:56:06;;;;;;;37.90;9.80;;;8.90;99.90;;;;;;5047003;28;20033;-69
2022/10/07 02:58:34;;;;;;;41.10;10.25;;;8.70;99.90;;;;;;5047331;28;20033;-69
2022/10/07 03:01:01;;;;;;;38.78;10.52;;;8.70;99.90;;;;;;5047000;28;20086;-69
2022/10/07 03:03:27;;;;;;;40.60;10.60;;;8.70;99.90;;;;;;5042458;28;20574;-69
2022/10/07 03:05:53;;;;;;;43.15;10.68;;;8.60;99.90;;;;;;5044808;28;20040;-69
2022/10/07 03:08:21;;;;;;;45.50;12.45;;;8.60;99.90;;;;;;5040481;28;20042;-69
2022/10/07 03:10:47;;;;;;;45.03;11.57;;;8.60;99.90;;;;;;5045060;28;20060;-69
2022/10/07 03:13:14;;;;;;;41.08;10.93;;;8.60;99.90;;;;;;5040814;28;20041;-69
2022/10/07 03:15:40;;;;;;;43.83;11.80;;;8.60;99.90;;;;;;5044314;28;20028;-69
2022/10/07 03:18:06;;;;;;;48.75;11.70;;;8.50;99.90;;;;;;5046861;28;20052;-69
2022/10/07 03:20:32;;;;;;;36.50;11.88;;;8.50;99.90;;;;;;5043115;28;20060;-69
2022/10/07 03:22:58;;;;;;;40.65;12.32;;;8.50;99.90;;;;;;5043484;28;20037;-69
2022/10/07 03:25:25;;;;;;;47.28;12.27;;;8.50;99.90;;;;;;5046217;28;20093;-69
2022/10/07 03:27:53;;;;;;;43.28;12.13;;;8.40;99.90;;;;;;5043564;28;20046;-69
2022/10/07 03:30:21;;;;;;;38.65;12.32;;;8.50;99.90;;;;;;5050894;28;20384;-69
2022/10/07 03:32:48;;;;;;;50.45;12.48;;;8.40;99.90;;;;;;5072520;28;20033;-69
2022/10/07 03:35:14;;;;;;;46.50;12.35;;;8.40;99.90;;;;;;5047163;28;20048;-69
2022/10/07 03:37:40;;;;;;;40.85;12.27;;;8.40;99.90;;;;;;5040230;28;20045;-69
2022/10/07 03:40:06;;;;;;;42.33;11.73;;;8.40;99.90;;;;;;5043331;28;20173;-69
2022/10/07 03:42:31;;;;;;;44.08;12.57;;;8.40;99.90;;;;;;5071469;28;20141;-69
2022/10/07 03:44:57;;;;;;;54.75;13.27;;;8.40;99.90;;;;;;5040233;28;20049;-69
2022/10/07 03:47:23;;;;;;;46.47;12.13;;;8.40;99.90;;;;;;5046910;28;20560;-69
2022/10/07 03:49:48;;;;;;;45.65;11.77;;;8.40;99.90;;;;;;5044689;28;20045;-69
2022/10/07 03:52:14;;;;;;;36.20;11.88;;;8.40;99.90;;;;;;5035929;28;20577;-69
2022/10/07 03:54:40;;;;;;;41.28;11.93;;;8.40;99.90;;;;;;5040296;28;20060;-69
2022/10/07 03:57:48;;;;;;;49.00;12.07;;;8.40;99.90;;;;;;5070515;28;20033;-69
2022/10/07 03:59:52;;;;;;;47.30;12.88;;;8.30;99.90;;;;;;5038776;28;20419;-69
2022/10/07 04:02:19;;;;;;;47.28;12.93;;;8.30;99.90;;;;;;5040985;28;20045;-68
2022/10/07 04:04:45;;;;;;;58.63;13.55;;;8.30;99.90;;;;;;5043555;28;20771;-70
2022/10/07 04:07:11;;;;;;;42.55;11.85;;;8.40;99.90;;;;;;5070018;28;20040;-69
2022/10/07 04:09:36;;;;;;;51.47;12.75;;;8.30;99.90;;;;;;5069140;28;20041;-69
2022/10/07 04:12:02;;;;;;;48.78;12.00;;;8.40;99.90;;;;;;5040917;28;20040;-69
2022/10/07 04:14:28;;;;;;;44.50;12.02;;;8.40;99.90;;;;;;5069627;28;20424;-69
2022/10/07 04:16:53;;;;;;;45.72;12.95;;;8.30;99.90;;;;;;5042136;28;20122;-69
2022/10/07 04:19:19;;;;;;;43.88;12.85;;;8.30;99.90;;;;;;5037981;28;20076;-69
2022/10/07 04:21:44;;;;;;;48.85;12.48;;;8.30;99.90;;;;;;5040843;28;20040;-69
2022/10/07 04:24:10;;;;;;;53.25;12.85;;;8.30;99.90;;;;;;5044157;28;20044;-69
2022/10/07 04:26:35;;;;;;;52.40;12.48;;;8.30;99.90;;;;;;5041681;28;20048;-69
2022/10/07 04:29:01;;;;;;;48.05;12.98;;;8.30;99.90;;;;;;5040270;28;20048;-69
2022/10/07 04:31:26;;;;;;;55.67;13.23;;;8.30;99.90;;;;;;5041906;28;20045;-69
2022/10/07 04:33:52;;;;;;;60.85;13.45;;;8.30;99.90;;;;;;5039506;28;20482;-69
2022/10/07 04:36:18;;;;;;;42.95;12.95;;;8.20;99.90;;;;;;5036893;28;20118;-69
2022/10/07 04:38:49;;;;;;;58.80;13.43;;;8.30;99.90;;;;;;5036292;28;20056;-69
2022/10/07 04:41:14;;;;;;;47.95;12.82;;;8.30;99.90;;;;;;5033671;28;20059;-69
2022/10/07 04:43:40;;;;;;;42.67;12.95;;;8.20;99.90;;;;;;5041115;28;20479;-69
2022/10/07 04:46:08;;;;;;;52.35;13.75;;;8.30;99.90;;;;;;5073170;28;20041;-68
2022/10/07 04:48:34;;;;;;;47.47;12.75;;;8.20;99.90;;;;;;5040638;28;20063;-68
2022/10/07 04:51:06;;;;;;;56.75;14.25;;;8.30;99.90;;;;;;5042444;28;20044;-70
2022/10/07 04:53:32;;;;;;;48.95;12.55;;;8.30;99.90;;;;;;5045135;28;20033;-69
2022/10/07 04:55:59;;;;;;;57.20;13.65;;;8.20;99.90;;;;;;5043380;28;20048;-69
2022/10/07 04:58:25;;;;;;;57.13;12.75;;;8.30;99.90;;;;;;5043960;28;20125;-69
2022/10/07 05:00:52;;;;;;;55.67;13.35;;;8.30;99.90;;;;;;5042747;28;20060;-69
2022/10/07 05:03:20;;;;;;;63.83;13.60;;;8.40;99.90;;;;;;5041054;28;20087;-69
2022/10/07 05:05:48;;;;;;;60.03;13.77;;;8.30;99.90;;;;;;5040220;28;20472;-69
2022/10/07 05:08:15;;;;;;;58.35;14.32;;;8.40;99.90;;;;;;5041208;28;20049;-68
2022/10/07 05:10:41;;;;;;;43.85;13.30;;;8.40;99.90;;;;;;5042908;28;20167;-69
2022/10/07 05:13:13;;;;;;;54.70;13.80;;;8.30;99.90;;;;;;5044390;28;20757;-69
2022/10/07 05:16:10;;;;;;;65.80;13.90;;;8.40;99.90;;;;;;5038247;28;20051;-69
2022/10/07 05:18:37;;;;;;;55.85;13.55;;;8.40;99.90;;;;;;5063892;28;20071;-69
2022/10/07 05:21:05;;;;;;;49.58;12.80;;;8.40;99.90;;;;;;5047486;28;20483;-69
2022/10/07 05:23:30;;;;;;;60.63;14.57;;;8.50;99.90;;;;;;5042210;28;20361;-69
2022/10/07 05:26:03;;;;;;;68.68;14.85;;;8.60;99.90;;;;;;5038906;28;20056;-69
2022/10/07 05:28:29;;;;;;;;;;;8.60;99.90;;;;;;5040139;28;20041;-69
2022/10/07 05:31:06;;;;;;;59.35;15.30;;;8.60;99.90;;;;;;5041724;28;19974;-69
2022/10/07 05:33:32;;;;;;;68.50;14.65;;;8.70;99.90;;;;;;5067440;28;20032;-69
2022/10/07 05:35:58;;;;;;;60.65;14.13;;;8.60;99.90;;;;;;5045847;28;20116;-69
2022/10/07 05:38:24;;;;;;;71.95;16.08;;;8.70;99.90;;;;;;5042266;28;20029;-69
2022/10/07 05:40:58;;;;;;;59.97;14.70;;;8.70;99.90;;;;;;5048564;28;20365;-69
2022/10/07 05:43:25;;;;;;;61.75;15.45;;;8.70;99.90;;;;;;5045113;28;20048;-69
2022/10/07 05:46:02;;;;;;;60.05;14.43;;;8.80;99.90;;;;;;5041116;28;20522;-69
2022/10/07 05:48:29;;;;;;;62.50;14.88;;;8.80;99.90;;;;;;5041571;28;20111;-69
2022/10/07 05:50:58;;;;;;;73.13;14.15;;;8.80;99.90;;;;;;5070570;28;20049;-68
2022/10/07 05:53:25;;;;;;;66.07;14.23;;;8.90;99.90;;;;;;5045062;28;20036;-69
2022/10/07 05:55:51;;;;;;;61.28;15.25;;;8.90;99.90;;;;;;5049146;28;20041;-69
2022/10/07 05:58:18;;;;;;;76.65;14.65;;;9.00;99.90;;;;;;5042229;28;20037;-69
2022/10/07 06:00:54;;;;;;;68.20;13.52;;;9.00;99.90;;;;;;5068014;28;20400;-69
2022/10/07 06:03:21;;;;;;;83.53;15.30;;;9.00;99.90;;;;;;5051306;28;20040;-70
2022/10/07 06:05:49;;;;;;;69.05;14.30;;;9.10;99.90;;;;;;5045657;28;20067;-69
2022/10/07 06:08:15;;;;;;;64.32;14.40;;;9.10;99.90;;;;;;5028649;28;20063;-69
2022/10/07 06:13:24;;;;;;;65.93;13.95;;;9.20;99.90;;;;;;5031730;28;20048;-69
2022/10/07 06:15:50;;;;;;;56.30;13.77;;;9.30;99.90;;;;;;5015578;28;20045;-68
2022/10/07 06:18:15;;;;;;;66.82;13.55;;;9.30;99.90;;;;;;5044370;28;20514;-68
2022/10/07 06:20:41;;;;;;;55.80;13.55;;;9.30;99.90;;;;;;5050788;28;20033;-69
2022/10/07 06:23:07;;;;;;;67.60;13.57;;;9.40;99.90;;;;;;5049024;28;20574;-68
2022/10/07 06:25:33;;;;;;;60.75;13.60;;;9.40;99.90;;;;;;5047930;28;20428;-68
2022/10/07 06:27:59;;;;;;;59.70;13.30;;;9.40;99.90;;;;;;5041573;28;20137;-67
2022/10/07 06:30:26;;;;;;;50.72;12.70;;;9.40;99.90;;;;;;5077474;28;20124;-67
2022/10/07 06:32:51;;;;;;;77.45;14.13;;;9.50;99.90;;;;;;5041052;28;20222;-69
2022/10/07 06:35:17;;;;;;;51.78;12.82;;;9.50;99.90;;;;;;5049465;28;20471;-70
2022/10/07 06:37:42;;;;;;;59.90;13.10;;;9.50;99.90;;;;;;5044781;28;20112;-69
2022/10/07 06:40:09;;;;;;;57.58;12.93;;;9.60;99.90;;;;;;5048351;28;20063;-69
2022/10/07 06:42:34;;;;;;;57.65;13.00;;;9.60;99.90;;;;;;5043300;28;20040;-68
2022/10/07 06:45:00;;;;;;;53.55;13.63;;;9.70;99.90;;;;;;5028763;28;20049;-67
2022/10/07 06:47:25;;;;;;;62.55;11.55;;;9.70;99.90;;;;;;5038493;28;20581;-68
2022/10/07 06:49:51;;;;;;;59.17;11.80;;;9.80;99.90;;;;;;5043505;28;20377;-68
2022/10/07 06:52:17;;;;;;;53.60;11.15;;;9.80;99.90;;;;;;5041621;28;20040;-68
2022/10/07 06:54:42;;;;;;;55.78;11.25;;;9.90;99.90;;;;;;5044545;28;20047;-68
2022/10/07 06:57:08;;;;;;;47.15;10.95;;;9.90;99.90;;;;;;5045710;28;20037;-69
2022/10/07 06:59:33;;;;;;;42.70;10.00;;;10.00;99.90;;;;;;5043564;28;20064;-68
2022/10/07 07:01:59;;;;;;;47.08;10.77;;;10.10;99.90;;;;;;5034957;28;20144;-68
2022/10/07 07:04:25;;;;;;;58.42;10.10;;;10.20;99.90;;;;;;5042521;28;20053;-68
2022/10/07 07:06:51;;;;;;;56.85;11.02;;;10.30;99.90;;;;;;5043612;28;20028;-68
2022/10/07 07:09:16;;;;;;;52.75;10.10;;;10.40;99.90;;;;;;5042644;28;20545;-67
2022/10/07 07:11:44;;;;;;;55.45;9.77;;;10.60;99.90;;;;;;5041027;28;20069;-67
2022/10/07 07:14:11;;;;;;;56.35;10.43;;;10.70;99.90;;;;;;5039008;28;20036;-69
2022/10/07 07:16:37;;;;;;;48.58;9.52;;;10.70;99.90;;;;;;5038316;28;20404;-69
2022/10/07 07:19:07;;;;;;;51.08;10.30;;;10.70;99.90;;;;;;5042061;28;20065;-70
2022/10/07 07:21:34;;;;;;;38.53;9.07;;;10.70;99.90;;;;;;5029816;28;20381;-67
2022/10/07 07:24:01;;;;;;;44.53;8.63;;;10.80;99.90;;;;;;5041527;28;20048;-67
2022/10/07 07:26:27;;;;;;;48.90;8.55;;;10.80;99.90;;;;;;5046449;28;20539;-68
2022/10/07 07:29:01;;;;;;;41.42;7.75;;;10.80;99.90;;;;;;5073485;28;20534;-67
2022/10/07 07:31:30;;;;;;;35.83;7.97;;;10.90;99.90;;;;;;5047377;28;20435;-66
2022/10/07 07:34:00;;;;;;;38.00;8.57;;;10.90;99.90;;;;;;5049044;28;20041;-67
2022/10/07 07:36:28;;;;;;;32.42;7.32;;;11.00;99.90;;;;;;5046207;28;20049;-68
2022/10/07 07:38:59;;;;;;;37.90;7.45;;;11.00;99.90;;;;;;5046596;28;20037;-69
2022/10/07 07:41:30;;;;;;;36.92;8.57;;;11.10;99.90;;;;;;5040482;28;20044;-69
2022/10/07 07:43:58;;;;;;;33.22;7.45;;;11.10;99.90;;;;;;5075465;28;20041;-67
2022/10/07 07:46:28;;;;;;;28.33;6.95;;;11.20;99.90;;;;;;5049989;28;20041;-68
2022/10/07 07:48:54;;;;;;;41.30;7.25;;;11.20;99.90;;;;;;5054306;28;20032;-69
2022/10/07 07:51:21;;;;;;;36.08;7.65;;;11.30;99.90;;;;;;5046862;28;20060;-68
2022/10/07 07:53:51;;;;;;;32.13;7.45;;;11.30;99.90;;;;;;5042664;28;20496;-69
2022/10/07 07:56:17;;;;;;;30.85;8.27;;;11.40;99.90;;;;;;5035925;28;20044;-70
2022/10/07 07:58:43;;;;;;;31.25;7.45;;;11.60;99.90;;;;;;5041299;28;20041;-68
2022/10/07 08:01:14;;;;;;;34.88;7.38;;;11.60;99.90;;;;;;5045981;28;20044;-68
2022/10/07 08:03:42;;;;;;;29.23;7.25;;;11.70;99.90;;;;;;5049807;28;20484;-68
2022/10/07 08:06:09;;;;;;;41.33;6.95;;;11.80;99.90;;;;;;5065373;28;20138;-69
2022/10/07 08:08:35;;;;;;;28.13;7.03;;;11.70;99.90;;;;;;5042340;28;20158;-68
2022/10/07 08:11:07;;;;;;;35.20;7.07;;;11.70;99.90;;;;;;5043563;28;20128;-69
2022/10/07 08:13:34;;;;;;;;;;;11.80;99.90;;;;;;5034829;28;20037;-70
2022/10/07 08:15:59;;;;;;;33.55;6.93;;;11.80;99.90;;;;;;5041704;28;19924;-68
2022/10/07 08:18:25;;;;;;;32.17;6.78;;;11.80;99.90;;;;;;5069790;28;20207;-69
2022/10/07 08:20:59;;;;;;;24.55;6.65;;;11.90;99.90;;;;;;5076798;28;20072;-68
2022/10/07 08:23:28;;;;;;;32.85;7.38;;;11.90;99.90;;;;;;5037398;28;20128;-68
2022/10/07 08:25:57;;;;;;;36.47;6.43;;;12.00;99.90;;;;;;5048777;28;20048;-69
2022/10/07 08:28:23;;;;;;;30.08;6.78;;;12.00;99.90;;;;;;5041447;28;20123;-68
2022/10/07 08:30:50;;;;;;;33.05;6.88;;;12.10;99.90;;;;;;5071917;28;20102;-68
2022/10/07 08:33:17;;;;;;;28.98;6.50;;;12.10;99.90;;;;;;5041545;28;20037;-68
2022/10/07 08:35:42;;;;;;;28.83;6.70;;;12.20;99.90;;;;;;5078018;28;20033;-69
2022/10/07 08:38:08;;;;;;;29.98;6.18;;;12.20;99.90;;;;;;5039588;28;20510;-69
2022/10/07 08:40:35;;;;;;;25.25;5.88;;;12.30;99.90;;;;;;5042285;28;20052;-68
2022/10/07 08:43:02;;;;;;;30.85;6.03;;;12.40;99.90;;;;;;5069290;28;20393;-69
2022/10/07 08:45:32;;;;;;;29.27;6.00;;;12.50;99.90;;;;;;5056310;28;20049;-66
2022/10/07 08:48:06;;;;;;;27.83;5.95;;;12.50;99.90;;;;;;5042826;28;20526;-68
2022/10/07 08:50:54;;;;;;;37.47;6.10;;;12.70;99.90;;;;;;5046318;28;20041;-67
2022/10/07 08:53:32;;;;;;;32.67;6.80;;;12.70;99.90;;;;;;5045050;28;20068;-68
2022/10/07 08:56:19;;;;;;;25.83;5.53;;;12.80;99.90;;;;;;5044102;28;20044;-67
2022/10/07 08:58:58;;;;;;;29.55;5.95;;;12.90;99.90;;;;;;5046456;28;20041;-68
2022/10/07 09:01:35;;;;;;;29.70;5.97;;;13.00;99.90;;;;;;5047070;28;20049;-68
2022/10/07 09:04:29;;;;;;;29.75;5.63;;;13.00;99.90;;;;;;5034098;28;20088;-69
2022/10/07 09:07:12;;;;;;;25.45;5.38;;;13.10;99.90;;;;;;5070823;28;20090;-69
2022/10/07 09:09:52;;;;;;;27.80;5.85;;;13.20;99.90;;;;;;5048403;28;20072;-67
2022/10/07 09:13:14;;;;;;;31.65;5.88;;;13.30;99.90;;;;;;5082594;28;20041;-67
2022/10/07 09:15:55;;;;;;;31.65;6.32;;;13.40;99.90;;;;;;5040188;28;20439;-69
2022/10/07 09:18:33;;;;;;;33.72;5.20;;;13.50;99.90;;;;;;5045564;28;20048;-69
2022/10/07 09:21:02;;;;;;;26.20;5.55;;;13.60;99.90;;;;;;5041326;28;20117;-69
2022/10/07 09:23:29;;;;;;;24.83;4.68;;;13.70;99.90;;;;;;5055343;28;20100;-67
2022/10/07 09:25:55;;;;;;;34.38;5.43;;;13.80;99.90;;;;;;5047705;28;20048;-68
2022/10/07 09:28:30;;;;;;;25.73;4.68;;;14.00;99.90;;;;;;5047221;28;20507;-68
2022/10/07 09:30:58;;;;;;;22.65;4.35;;;14.20;99.90;;;;;;5049135;28;20481;-67
2022/10/07 09:33:24;;;;;;;27.58;4.93;;;14.30;99.90;;;;;;5043280;28;20096;-68
2022/10/07 09:35:54;;;;;;;24.98;4.43;;;14.50;99.90;;;;;;5045929;28;20075;-70
2022/10/07 09:38:32;;;;;;;24.08;4.35;;;14.60;99.90;;;;;;5054341;28;20039;-70
2022/10/07 09:41:15;;;;;;;23.83;3.83;;;14.80;99.90;;;;;;5031799;28;20052;-68
2022/10/07 09:43:54;;;;;;;19.50;3.85;;;14.80;99.90;;;;;;5072518;28;20561;-69
2022/10/07 09:46:31;;;;;;;18.80;4.20;;;14.80;99.90;;;;;;5047763;28;20395;-69
2022/10/07 09:49:00;;;;;;;22.80;4.40;;;14.90;99.90;;;;;;5077999;28;20056;-69
2022/10/07 09:51:26;;;;;;;28.63;4.10;;;14.90;99.90;;;;;;5036796;28;20547;-71
2022/10/07 09:54:17;;;;;;;30.88;3.80;;;15.00;99.90;;;;;;5039023;28;20104;-69
2022/10/07 09:56:45;;;;;;;20.55;3.55;;;15.20;99.90;;;;;;5054049;28;20083;-70
2022/10/07 09:59:21;;;;;;;21.83;3.50;;;15.40;99.90;;;;;;5052695;28;20041;-69
2022/10/07 10:02:14;;;;;;;23.75;3.95;;;15.40;99.90;;;;;;5051185;28;20401;-69
2022/10/07 10:04:56;;;;;;;24.02;4.00;;;15.60;99.90;;;;;;5032319;28;20512;-68
2022/10/07 10:07:31;;;;;;;22.23;3.42;;;15.70;99.90;;;;;;5052244;28;20275;-69
2022/10/07 10:10:03;;;;;;;26.15;3.70;;;15.90;99.90;;;;;;5035011;28;20045;-69
2022/10/07 10:12:31;;;;;;;;;;;16.00;99.90;;;;;;5048490;28;20037;-69
2022/10/07 10:14:59;;;;;;;26.02;3.95;;;16.00;99.90;;;;;;5051449;28;20021;-71
2022/10/07 10:17:34;;;;;;;30.17;4.20;;;16.10;99.90;;;;;;5050647;28;20095;-67
2022/10/07 10:20:29;;;;;;;24.83;4.00;;;16.20;99.90;;;;;;5052269;28;20127;-67
2022/10/07 10:22:56;;;;;;;23.08;3.35;;;16.40;99.90;;;;;;5049922;28;20442;-68
2022/10/07 10:28:43;;;;;;;24.08;3.67;;;16.50;99.90;;;;;;5048606;28;20336;-66
2022/10/07 10:31:35;;;;;;;20.30;3.30;;;16.50;99.90;;;;;;5030813;28;20045;-68
2022/10/07 10:34:12;;;;;;;23.17;3.47;;;16.50;99.90;;;;;;5020064;28;20508;-67
2022/10/07 10:36:44;;;;;;;28.02;4.32;;;16.50;99.90;;;;;;5051444;28;20041;-66
2022/10/07 10:39:28;;;;;;;19.30;3.25;;;16.60;99.90;;;;;;5050868;28;20087;-69
2022/10/07 10:41:58;;;;;;;19.58;4.10;;;16.60;99.90;;;;;;5051008;28;20067;-69
2022/10/07 10:44:31;;;;;;;25.55;3.83;;;16.50;99.90;;;;;;5047974;28;20055;-67
2022/10/07 10:47:18;;;;;;;21.30;3.35;;;16.50;99.90;;;;;;5040668;28;20088;-66
2022/10/07 10:49:57;;;;;;;19.77;3.70;;;16.60;99.90;;;;;;5051234;28;20120;-69
2022/10/07 10:52:36;;;;;;;23.23;3.85;;;16.70;99.90;;;;;;5049750;28;20492;-66
2022/10/07 10:55:25;;;;;;;35.42;4.47;;;16.70;99.90;;;;;;5039430;28;20069;-66
2022/10/07 10:58:26;;;;;;;19.42;4.30;;;16.50;99.90;;;;;;5083227;28;20036;-66
2022/10/07 11:01:10;;;;;;;27.70;4.28;;;16.40;99.90;;;;;;5039122;28;20071;-66
2022/10/07 11:04:03;;;;;;;25.17;4.05;;;16.30;99.90;;;;;;5041832;28;20051;-67
2022/10/07 11:06:34;;;;;;;22.13;3.88;;;16.20;99.90;;;;;;5049478;28;20044;-68
2022/10/07 11:09:02;;;;;;;21.80;3.87;;;16.20;99.90;;;;;;5050625;28;20048;-68
2022/10/07 11:11:28;;;;;;;23.65;4.03;;;16.20;99.90;;;;;;5049202;28;20308;-69
2022/10/07 11:14:00;;;;;;;21.27;3.80;;;16.10;99.90;;;;;;5052002;28;20044;-68
2022/10/07 11:16:29;;;;;;;25.48;5.45;;;16.10;99.90;;;;;;5051047;28;20049;-67
2022/10/07 11:19:03;;;;;;;24.52;4.47;;;16.00;99.90;;;;;;5033122;28;20049;-68
2022/10/07 11:21:37;;;;;;;28.35;4.78;;;15.90;99.90;;;;;;5030939;28;20045;-68
2022/10/07 11:24:28;;;;;;;22.50;4.15;;;16.00;99.90;;;;;;5058303;28;20111;-69
2022/10/07 11:27:15;;;;;;;27.05;4.03;;;16.10;99.90;;;;;;5050010;28;20111;-67
2022/10/07 11:30:14;;;;;;;19.70;4.28;;;16.30;99.90;;;;;;5030137;28;20050;-66
2022/10/07 11:32:57;;;;;;;21.67;4.38;;;16.40;99.90;;;;;;5029462;28;20056;-64
2022/10/07 11:35:42;;;;;;;22.10;3.78;;;16.60;99.90;;;;;;5043405;28;20399;-66
2022/10/07 11:38:11;;;;;;;27.08;4.13;;;16.70;99.90;;;;;;5035403;28;20095;-65
2022/10/07 11:41:07;;;;;;;23.30;4.13;;;16.70;99.90;;;;;;5047750;28;20107;-69
2022/10/07 11:43:37;;;;;;;25.33;3.85;;;16.80;99.90;;;;;;5031104;28;20072;-66
2022/10/07 11:46:09;;;;;;;27.48;4.72;;;16.80;99.90;;;;;;5047995;28;20120;-65
2022/10/07 11:48:47;;;;;;;19.55;3.35;;;16.90;99.90;;;;;;5049837;28;20049;-65
2022/10/07 11:51:26;;;;;;;16.85;3.47;;;17.00;99.90;;;;;;5049315;28;20499;-67
2022/10/07 11:53:56;;;;;;;19.58;3.53;;;17.00;99.90;;;;;;5049283;28;20045;-64
2022/10/07 11:56:27;;;;;;;20.38;3.72;;;17.00;99.90;;;;;;5049862;28;20039;-65
2022/10/07 11:59:05;;;;;;;17.30;3.08;;;16.90;99.90;;;;;;5048035;28;20053;-64
2022/10/07 12:01:33;;;;;;;20.33;3.38;;;16.70;99.90;;;;;;5048096;28;20072;-64
2022/10/07 12:04:23;;;;;;;14.25;3.17;;;16.70;99.90;;;;;;5051384;28;20061;-64
2022/10/07 12:07:27;;;;;;;19.52;2.95;;;16.60;99.90;;;;;;5049950;28;20037;-65
2022/10/07 12:10:02;;;;;;;18.48;3.40;;;16.60;99.90;;;;;;5045155;28;21190;-69
2022/10/07 12:12:43;;;;;;;15.15;2.90;;;16.60;99.90;;;;;;5069023;28;20033;-63
2022/10/07 12:15:32;;;;;;;15.88;2.45;;;16.60;99.90;;;;;;5071875;28;20041;-67
2022/10/07 12:18:04;;;;;;;23.15;3.00;;;16.70;99.90;;;;;;5071562;28;20037;-68
2022/10/07 12:20:43;;;;;;;21.73;3.13;;;16.70;99.90;;;;;;5047551;28;20037;-65
2022/10/07 12:23:21;;;;;;;16.70;3.03;;;16.60;99.90;;;;;;5047400;28;20056;-64
2022/10/07 12:25:46;;;;;;;19.25;3.58;;;16.60;99.90;;;;;;5030078;28;20052;-65
2022/10/07 12:28:24;;;;;;;27.38;4.05;;;16.60;99.90;;;;;;5048805;28;20048;-69
2022/10/07 12:30:52;;;;;;;18.77;3.35;;;16.60;99.90;;;;;;5030466;28;20042;-65
2022/10/07 12:33:43;;;;;;;30.70;4.55;;;16.60;99.90;;;;;;5062186;28;20041;-65
2022/10/07 12:36:28;;;;;;;18.33;3.08;;;16.50;99.90;;;;;;5031043;28;20411;-65
2022/10/07 12:38:57;;;;;;;19.92;3.15;;;16.50;99.90;;;;;;5049089;28;20037;-66
2022/10/07 12:41:35;;;;;;;16.45;3.15;;;16.60;99.90;;;;;;5065641;28;20047;-63
2022/10/07 12:44:07;;;;;;;20.60;3.53;;;16.60;99.90;;;;;;5065137;28;20052;-68
2022/10/07 12:46:47;;;;;;;13.55;2.83;;;16.60;99.90;;;;;;5042365;28;20032;-66
2022/10/07 12:49:51;;;;;;;25.90;3.83;;;16.60;99.90;;;;;;5041768;28;20414;-66
2022/10/07 12:52:43;;;;;;;14.75;2.90;;;16.60;99.90;;;;;;4984858;28;20132;-65
2022/10/07 12:55:18;;;;;;;17.10;3.75;;;16.60;99.90;;;;;;4977429;28;20050;-66
2022/10/07 12:57:51;;;;;;;19.23;3.03;;;16.50;99.90;;;;;;4981877;28;20042;-65
2022/10/07 13:00:23;;;;;;;18.45;3.50;;;16.50;99.90;;;;;;4986017;28;20457;-68
2022/10/07 13:03:23;;;;;;;21.27;3.20;;;16.50;99.90;;;;;;4985110;28;20042;-67
2022/10/07 13:06:22;;;;;;;14.70;2.97;;;16.70;99.90;;;;;;4941565;28;20073;-65
2022/10/07 13:09:22;;;;;;;26.38;3.47;;;16.80;99.90;;;;;;5041353;28;20037;-65
2022/10/07 13:12:11;;;;;;;18.45;3.17;;;16.70;99.90;;;;;;5075764;28;20052;-68
2022/10/07 13:15:04;;;;;;;20.67;3.40;;;16.70;99.90;;;;;;5046437;28;20052;-67